Time;durP1;ratioP1;P1;durP2;ratioP2;P2;SDS_P1;SDS_P2;PMS_P1;PMS_P2;Temp;Humidity;BMP_temperature;BMP_pressure;BME280_temperature;BME280_humidity;BME280_pressure;Samples;Min_cycle;Max_cycle;Signal;HPM_P1;HPM_P2
2021/06/29 00:01:30;;;;;;;11.50;10.50;;;17.30;99.90;;;;;;5050204;28;21288;-81
2021/06/29 00:03:58;;;;;;;13.00;11.80;;;17.40;99.90;;;;;;5050260;28;20611;-81
2021/06/29 00:06:24;;;;;;;12.87;11.77;;;17.40;99.90;;;;;;5049561;28;20609;-81
2021/06/29 00:08:51;;;;;;;11.60;10.57;;;17.20;99.90;;;;;;5049952;28;20598;-80
2021/06/29 00:11:19;;;;;;;10.47;9.50;;;17.20;99.90;;;;;;5050056;28;21017;-81
2021/06/29 00:13:47;;;;;;;9.83;8.90;;;17.20;99.90;;;;;;5049912;28;20747;-82
2021/06/29 00:16:14;;;;;;;11.63;9.80;;;17.30;99.90;;;;;;5049644;28;20714;-81
2021/06/29 00:18:41;;;;;;;11.33;10.33;;;17.40;99.90;;;;;;5050208;28;20624;-81
2021/06/29 00:21:08;;;;;;;12.40;11.03;;;17.30;99.90;;;;;;5050063;28;21163;-81
2021/06/29 00:23:38;;;;;;;11.30;10.20;;;17.30;99.90;;;;;;5049852;28;20726;-82
2021/06/29 00:26:07;;;;;;;10.67;9.70;;;17.40;99.90;;;;;;5049743;28;21473;-81
2021/06/29 00:28:34;;;;;;;9.87;9.07;;;17.40;99.90;;;;;;5050280;28;20986;-80
2021/06/29 00:31:03;;;;;;;10.00;9.00;;;17.40;99.90;;;;;;5049704;28;20610;-81
2021/06/29 00:33:30;;;;;;;11.77;10.07;;;17.30;99.90;;;;;;5050105;28;20658;-81
2021/06/29 00:35:57;;;;;;;10.73;9.73;;;17.40;99.90;;;;;;5048939;28;20654;-81
2021/06/29 00:38:23;;;;;;;11.20;10.20;;;17.40;99.90;;;;;;5050097;28;21001;-81
2021/06/29 00:40:51;;;;;;;13.13;10.30;;;17.40;99.90;;;;;;5049977;28;21125;-81
2021/06/29 00:43:18;;;;;;;10.80;9.80;;;17.50;99.90;;;;;;5049628;28;21256;-81
2021/06/29 00:45:45;;;;;;;11.70;9.93;;;17.40;99.90;;;;;;5049273;28;21187;-81
2021/06/29 00:48:14;;;;;;;10.27;9.37;;;17.30;99.90;;;;;;5049928;28;20749;-81
2021/06/29 00:50:41;;;;;;;9.43;8.57;;;17.20;99.90;;;;;;5049373;28;20684;-80
2021/06/29 00:53:09;;;;;;;7.97;7.23;;;17.20;99.90;;;;;;5065371;28;20709;-81
2021/06/29 00:55:37;;;;;;;8.57;7.77;;;17.20;99.90;;;;;;5070257;28;20656;-82
2021/06/29 00:58:07;;;;;;;8.73;7.93;;;17.30;99.90;;;;;;5073473;28;20667;-81
2021/06/29 01:00:34;;;;;;;9.10;8.50;;;17.30;99.90;;;;;;5073149;28;20978;-82
2021/06/29 01:03:02;;;;;;;9.33;8.53;;;17.50;99.90;;;;;;5073065;28;20646;-81
2021/06/29 01:05:32;;;;;;;8.77;8.00;;;17.40;99.90;;;;;;5072816;28;20627;-82
2021/06/29 01:08:01;;;;;;;8.93;8.23;;;17.50;99.90;;;;;;5073574;28;20631;-82
2021/06/29 01:10:30;;;;;;;8.17;7.47;;;17.40;99.90;;;;;;5073608;28;20625;-81
2021/06/29 01:12:58;;;;;;;8.40;7.67;;;17.50;99.90;;;;;;5073261;28;20653;-81
2021/06/29 01:15:26;;;;;;;7.90;7.17;;;17.40;99.90;;;;;;5072473;28;20621;-82
2021/06/29 01:17:55;;;;;;;8.23;7.53;;;17.50;99.90;;;;;;5072898;28;20699;-82
2021/06/29 01:20:27;;;;;;;8.67;7.73;;;17.50;99.90;;;;;;5073317;28;21062;-81
2021/06/29 01:22:56;;;;;;;7.43;6.83;;;17.50;99.90;;;;;;5073213;28;20634;-82
2021/06/29 01:25:28;;;;;;;8.07;7.47;;;17.50;99.90;;;;;;5072639;28;20656;-81
2021/06/29 01:28:06;;;;;;;8.07;7.37;;;17.50;99.90;;;;;;5073031;28;20621;-82
2021/06/29 01:33:21;;;;;;;7.97;6.93;;;17.60;99.90;;;;;;5073274;28;20634;-82
2021/06/29 01:35:51;;;;;;;7.10;6.50;;;17.60;99.90;;;;;;5071709;28;20686;-83
2021/06/29 01:38:20;;;;;;;7.13;6.53;;;17.60;99.90;;;;;;5072953;28;20619;-82
2021/06/29 01:40:50;;;;;;;6.20;5.80;;;17.60;99.90;;;;;;5072890;28;20625;-82
2021/06/29 01:43:21;;;;;;;7.00;6.50;;;17.60;99.90;;;;;;5072692;28;20643;-83
2021/06/29 01:45:53;;;;;;;8.93;6.50;;;17.60;99.90;;;;;;5072020;28;20616;-82
2021/06/29 01:48:23;;;;;;;6.53;6.03;;;17.60;99.90;;;;;;5072708;28;20630;-83
2021/06/29 01:50:54;;;;;;;6.90;6.30;;;17.60;99.90;;;;;;5072292;28;20663;-82
2021/06/29 01:53:24;;;;;;;6.07;5.50;;;17.60;99.90;;;;;;5054279;28;20882;-83
2021/06/29 01:55:51;;;;;;;5.30;4.90;;;17.50;99.90;;;;;;5052050;28;20642;-83
2021/06/29 01:58:24;;;;;;;6.40;5.90;;;17.50;99.90;;;;;;5052632;28;20668;-81
2021/06/29 02:00:52;;;;;;;6.93;6.33;;;17.40;99.90;;;;;;5052247;28;20709;-81
2021/06/29 02:03:20;;;;;;;6.90;6.30;;;17.20;99.90;;;;;;5053466;28;20728;-82
2021/06/29 02:05:49;;;;;;;8.23;7.03;;;17.20;99.90;;;;;;5060169;28;20728;-83
2021/06/29 02:08:19;;;;;;;7.60;7.00;;;17.30;99.90;;;;;;5058978;28;20618;-82
2021/06/29 02:10:47;;;;;;;7.10;6.50;;;17.30;99.90;;;;;;5063524;28;20722;-82
2021/06/29 02:13:15;;;;;;;8.03;7.10;;;17.30;99.90;;;;;;5059133;28;20683;-82
2021/06/29 02:15:43;;;;;;;9.00;7.13;;;17.20;99.90;;;;;;5051390;28;20610;-82
2021/06/29 02:18:11;;;;;;;7.20;6.60;;;17.20;99.90;;;;;;5070336;28;20681;-82
2021/06/29 02:20:39;;;;;;;5.83;5.30;;;17.30;99.90;;;;;;5072408;28;21151;-81
2021/06/29 02:23:06;;;;;;;6.90;6.20;;;17.30;99.90;;;;;;5072044;28;20617;-81
2021/06/29 02:25:37;;;;;;;6.00;5.60;;;17.30;99.90;;;;;;5062133;28;20619;-82
2021/06/29 02:28:07;;;;;;;5.50;5.10;;;17.30;99.90;;;;;;5051922;28;20648;-82
2021/06/29 02:30:36;;;;;;;6.20;5.70;;;17.40;99.90;;;;;;5051395;28;20758;-81
2021/06/29 02:33:06;;;;;;;6.73;6.13;;;17.30;99.90;;;;;;5051436;28;20648;-82
2021/06/29 02:35:34;;;;;;;6.53;6.03;;;17.30;99.90;;;;;;5050628;28;21183;-82
2021/06/29 02:38:02;;;;;;;6.00;5.60;;;17.30;99.90;;;;;;5052037;28;20619;-82
2021/06/29 02:40:29;;;;;;;6.17;5.77;;;17.30;99.90;;;;;;5051714;28;21219;-83
2021/06/29 02:42:58;;;;;;;7.10;6.40;;;17.30;99.90;;;;;;5062807;28;20657;-82
2021/06/29 02:45:25;;;;;;;5.97;5.37;;;17.40;99.90;;;;;;5071125;28;20630;-83
2021/06/29 02:47:53;;;;;;;6.60;6.10;;;17.30;99.90;;;;;;5071664;28;20651;-82
2021/06/29 02:50:20;;;;;;;5.80;5.30;;;17.30;99.90;;;;;;5071529;28;20610;-82
2021/06/29 02:52:48;;;;;;;7.00;5.83;;;17.10;99.90;;;;;;5071818;28;20632;-82
2021/06/29 02:55:15;;;;;;;6.57;5.97;;;17.10;99.90;;;;;;5070794;28;20662;-82
2021/06/29 02:57:43;;;;;;;6.33;5.83;;;17.00;99.90;;;;;;5071630;28;20612;-82
2021/06/29 03:00:14;;;;;;;5.90;5.50;;;16.80;99.90;;;;;;5071381;28;20617;-82
2021/06/29 03:02:41;;;;;;;6.30;5.80;;;16.70;99.90;;;;;;5071371;28;20707;-82
2021/06/29 03:05:09;;;;;;;6.47;5.97;;;16.70;99.90;;;;;;5070768;28;21210;-82
2021/06/29 03:07:36;;;;;;;6.50;6.00;;;16.70;99.90;;;;;;5071636;28;20622;-82
2021/06/29 03:10:05;;;;;;;6.80;5.40;;;16.80;99.90;;;;;;5070897;28;20602;-83
2021/06/29 03:12:32;;;;;;;7.40;6.70;;;16.90;99.90;;;;;;5070921;28;20617;-82
2021/06/29 03:14:59;;;;;;;8.00;7.30;;;17.00;99.90;;;;;;5070480;28;20669;-82
2021/06/29 03:17:28;;;;;;;7.27;6.67;;;17.00;99.90;;;;;;5056148;28;20628;-82
2021/06/29 03:19:55;;;;;;;6.70;6.20;;;16.90;99.90;;;;;;5050563;28;20650;-82
2021/06/29 03:22:22;;;;;;;6.50;6.00;;;17.10;99.90;;;;;;5051000;28;21028;-82
2021/06/29 03:24:50;;;;;;;6.23;5.73;;;17.10;99.90;;;;;;5049989;28;20619;-82
2021/06/29 03:27:18;;;;;;;6.67;6.17;;;17.10;99.90;;;;;;5051153;28;20668;-82
2021/06/29 03:29:45;;;;;;;7.30;6.70;;;17.00;99.90;;;;;;5050857;28;20607;-81
2021/06/29 03:32:12;;;;;;;6.40;6.00;;;17.00;99.90;;;;;;5050719;28;20661;-81
2021/06/29 03:34:40;;;;;;;6.33;5.73;;;16.90;99.90;;;;;;5049445;28;20694;-82
2021/06/29 03:37:07;;;;;;;7.20;6.70;;;16.80;99.90;;;;;;5050378;28;20610;-82
2021/06/29 03:39:35;;;;;;;9.27;6.47;;;16.80;99.90;;;;;;5050477;28;20606;-81
2021/06/29 03:42:02;;;;;;;8.63;6.53;;;16.80;99.90;;;;;;5050546;28;20622;-81
2021/06/29 03:44:29;;;;;;;7.30;6.50;;;16.80;99.90;;;;;;5050046;28;20613;-83
2021/06/29 03:46:56;;;;;;;7.97;7.17;;;16.90;99.90;;;;;;5050602;28;21112;-82
2021/06/29 03:49:23;;;;;;;7.20;6.60;;;16.80;99.90;;;;;;5050239;28;21160;-82
2021/06/29 03:51:53;;;;;;;6.27;5.87;;;16.80;99.90;;;;;;5050073;28;20600;-82
2021/06/29 03:54:20;;;;;;;9.00;7.03;;;16.80;99.90;;;;;;5049953;28;20656;-82
2021/06/29 03:56:47;;;;;;;7.73;7.13;;;16.90;99.90;;;;;;5050723;28;20626;-82
2021/06/29 03:59:14;;;;;;;7.37;6.87;;;16.90;99.90;;;;;;5050550;28;20679;-82
2021/06/29 04:01:41;;;;;;;8.67;7.97;;;16.90;99.90;;;;;;5050465;28;20607;-82
2021/06/29 04:04:09;;;;;;;8.03;7.40;;;17.00;99.90;;;;;;5050480;28;20665;-82
2021/06/29 04:06:38;;;;;;;7.37;6.77;;;17.10;99.90;;;;;;5049376;28;20661;-82
2021/06/29 04:09:08;;;;;;;8.30;7.70;;;17.10;99.90;;;;;;5050645;28;20663;-82
2021/06/29 04:11:36;;;;;;;8.27;7.67;;;17.20;99.90;;;;;;5050225;28;20676;-83
2021/06/29 04:14:03;;;;;;;8.60;7.90;;;17.20;99.90;;;;;;5050225;28;21077;-83
2021/06/29 04:16:31;;;;;;;8.60;7.90;;;17.20;99.90;;;;;;5056284;28;20689;-83
2021/06/29 04:18:58;;;;;;;7.53;6.83;;;17.20;99.90;;;;;;5069577;28;20655;-83
2021/06/29 04:21:24;;;;;;;7.57;7.00;;;17.20;99.90;;;;;;5070115;28;20740;-83
2021/06/29 04:23:51;;;;;;;7.97;6.33;;;17.20;99.90;;;;;;5070261;28;20691;-83
2021/06/29 04:26:20;;;;;;;6.57;6.07;;;17.20;99.90;;;;;;5070038;28;20613;-83
2021/06/29 04:28:47;;;;;;;6.80;6.20;;;17.20;99.90;;;;;;5070161;28;20622;-83
2021/06/29 04:31:16;;;;;;;6.17;5.67;;;17.20;99.90;;;;;;5071927;28;20657;-83
2021/06/29 04:33:43;;;;;;;7.80;5.70;;;17.10;99.90;;;;;;5073821;28;20665;-82
2021/06/29 04:36:11;;;;;;;6.00;5.13;;;17.00;99.90;;;;;;5073261;28;21011;-82
2021/06/29 04:38:37;;;;;;;6.47;5.97;;;16.80;99.90;;;;;;5074088;28;20721;-82
2021/06/29 04:41:04;;;;;;;7.23;6.63;;;16.50;99.90;;;;;;5073929;28;20653;-82
2021/06/29 04:43:35;;;;;;;7.87;6.00;;;16.50;99.90;;;;;;5073953;28;20678;-82
2021/06/29 04:46:02;;;;;;;7.43;6.83;;;16.60;99.90;;;;;;5073115;28;20690;-82
2021/06/29 04:48:29;;;;;;;7.73;7.13;;;16.70;99.90;;;;;;5073914;28;20613;-82
2021/06/29 04:50:56;;;;;;;6.93;6.40;;;16.70;99.90;;;;;;5073839;28;20657;-82
2021/06/29 04:53:22;;;;;;;7.70;7.03;;;16.80;99.90;;;;;;5073940;28;21034;-82
2021/06/29 04:55:49;;;;;;;7.50;6.60;;;16.70;99.90;;;;;;5073068;28;20668;-82
2021/06/29 04:58:16;;;;;;;7.33;6.73;;;16.80;99.90;;;;;;5073622;28;20653;-82
2021/06/29 05:00:45;;;;;;;7.40;6.70;;;16.70;99.90;;;;;;5073046;28;21013;-82
2021/06/29 05:03:13;;;;;;;6.87;6.27;;;16.70;99.90;;;;;;5073500;28;20641;-82
2021/06/29 05:05:40;;;;;;;7.63;6.70;;;16.70;99.90;;;;;;5072889;28;20609;-82
2021/06/29 05:08:07;;;;;;;8.93;7.30;;;16.80;99.90;;;;;;5073612;28;20612;-82
2021/06/29 05:10:35;;;;;;;7.70;7.10;;;16.80;99.90;;;;;;5073354;28;20662;-82
2021/06/29 05:13:02;;;;;;;7.33;6.77;;;16.80;99.90;;;;;;5073080;28;20671;-82
2021/06/29 05:15:29;;;;;;;6.37;5.93;;;16.80;99.90;;;;;;5072637;28;20662;-81
2021/06/29 05:17:57;;;;;;;7.60;7.00;;;16.90;99.90;;;;;;5054727;28;20791;-82
2021/06/29 05:20:24;;;;;;;7.50;6.90;;;16.90;99.90;;;;;;5053166;28;20714;-82
2021/06/29 05:22:52;;;;;;;7.73;6.30;;;16.90;99.90;;;;;;5053375;28;20635;-82
2021/06/29 05:25:19;;;;;;;6.97;6.37;;;17.00;99.90;;;;;;5052493;28;20649;-82
2021/06/29 05:27:47;;;;;;;7.03;6.43;;;17.00;99.90;;;;;;5052799;28;20723;-82
2021/06/29 05:30:15;;;;;;;7.43;6.83;;;17.00;99.90;;;;;;5053344;28;20631;-82
2021/06/29 05:32:42;;;;;;;6.67;6.17;;;16.90;99.90;;;;;;5053059;28;20633;-82
2021/06/29 05:35:11;;;;;;;7.37;6.77;;;16.80;99.90;;;;;;5051512;28;20740;-82
2021/06/29 05:37:38;;;;;;;7.30;6.80;;;16.70;99.90;;;;;;5052938;28;20655;-82
2021/06/29 05:40:06;;;;;;;7.83;7.23;;;16.80;99.90;;;;;;5052622;28;20609;-82
2021/06/29 05:42:33;;;;;;;7.10;6.50;;;16.80;99.90;;;;;;5052121;28;20693;-82
2021/06/29 05:45:00;;;;;;;7.00;6.50;;;16.80;99.90;;;;;;5052318;28;20695;-82
2021/06/29 05:47:27;;;;;;;7.03;6.37;;;16.80;99.90;;;;;;5052922;28;21003;-82
2021/06/29 05:49:54;;;;;;;6.67;6.10;;;16.90;99.90;;;;;;5052501;28;20691;-83
2021/06/29 05:52:23;;;;;;;7.20;6.43;;;17.00;99.90;;;;;;5052531;28;20639;-82
2021/06/29 05:54:51;;;;;;;6.67;6.13;;;16.90;99.90;;;;;;5051783;28;20994;-82
2021/06/29 05:57:18;;;;;;;6.37;5.87;;;17.00;99.90;;;;;;5052387;28;21159;-82
2021/06/29 05:59:45;;;;;;;6.53;6.03;;;17.00;99.90;;;;;;5052493;28;20614;-82
2021/06/29 06:02:12;;;;;;;7.07;6.37;;;17.10;99.90;;;;;;5052442;28;20623;-82
2021/06/29 06:04:40;;;;;;;7.20;6.50;;;17.20;99.90;;;;;;5051958;28;20975;-82
2021/06/29 06:07:07;;;;;;;6.53;5.93;;;17.20;99.90;;;;;;5052096;28;20654;-81
2021/06/29 06:09:35;;;;;;;6.23;5.77;;;17.30;99.90;;;;;;5052021;28;20653;-82
2021/06/29 06:12:02;;;;;;;6.63;6.03;;;17.30;99.90;;;;;;5052338;28;20648;-82
2021/06/29 06:14:29;;;;;;;6.00;5.60;;;17.30;99.90;;;;;;5051908;28;20649;-82
2021/06/29 06:16:56;;;;;;;5.90;5.50;;;17.40;99.90;;;;;;5062429;28;21183;-82
2021/06/29 06:19:23;;;;;;;5.73;5.33;;;17.50;99.90;;;;;;5072401;28;21211;-82
2021/06/29 06:21:50;;;;;;;5.90;5.37;;;17.50;99.90;;;;;;5071549;28;20638;-82
2021/06/29 06:24:17;;;;;;;5.60;5.20;;;17.60;99.90;;;;;;5071698;28;20681;-82
2021/06/29 06:26:45;;;;;;;6.77;5.17;;;17.70;99.90;;;;;;5072198;28;20616;-82
2021/06/29 06:29:12;;;;;;;5.37;4.87;;;17.70;99.90;;;;;;5072172;28;20627;-82
2021/06/29 06:31:39;;;;;;;5.03;4.63;;;17.70;99.90;;;;;;5071755;28;20632;-83
2021/06/29 06:34:06;;;;;;;5.03;4.73;;;17.80;99.90;;;;;;5071823;28;20637;-83
2021/06/29 06:36:33;;;;;;;4.30;4.00;;;17.90;99.90;;;;;;5069990;28;20678;-83
2021/06/29 06:39:00;;;;;;;4.53;4.13;;;17.90;99.90;;;;;;5071875;28;20644;-84
2021/06/29 06:41:27;;;;;;;4.20;3.90;;;17.90;99.90;;;;;;5071533;28;20679;-83
2021/06/29 06:43:55;;;;;;;5.77;5.30;;;17.90;99.90;;;;;;5071771;28;20631;-83
2021/06/29 06:46:22;;;;;;;4.57;4.27;;;18.00;99.90;;;;;;5071152;28;20605;-83
2021/06/29 06:48:49;;;;;;;4.40;4.07;;;18.00;99.90;;;;;;5071290;28;20643;-83
2021/06/29 06:51:16;;;;;;;4.10;3.80;;;18.00;99.90;;;;;;5071474;28;20637;-83
2021/06/29 06:53:43;;;;;;;4.50;4.20;;;18.00;99.90;;;;;;5070750;28;20616;-83
2021/06/29 06:56:14;;;;;;;5.10;4.80;;;18.00;99.90;;;;;;5071148;28;20667;-83
2021/06/29 06:58:41;;;;;;;4.40;4.10;;;18.00;99.90;;;;;;5071604;28;20967;-84
2021/06/29 07:01:10;;;;;;;4.40;4.10;;;18.10;99.90;;;;;;5071515;28;20627;-83
2021/06/29 07:03:37;;;;;;;4.10;3.80;;;18.40;99.90;;;;;;5070876;28;20705;-83
2021/06/29 07:06:04;;;;;;;5.17;4.70;;;18.40;99.90;;;;;;5070778;28;20632;-83
2021/06/29 07:08:31;;;;;;;3.77;3.47;;;18.50;99.90;;;;;;5071395;28;20612;-83
2021/06/29 07:10:59;;;;;;;4.03;3.80;;;18.50;99.90;;;;;;5071157;28;20648;-83
2021/06/29 07:13:26;;;;;;;4.53;4.13;;;18.50;99.90;;;;;;5070434;28;20714;-83
2021/06/29 07:15:53;;;;;;;4.60;4.20;;;18.60;99.90;;;;;;5051984;28;20723;-83
2021/06/29 07:18:21;;;;;;;3.47;3.20;;;18.70;99.90;;;;;;5070605;28;21246;-83
2021/06/29 07:20:50;;;;;;;3.90;3.53;;;18.70;99.90;;;;;;5070982;28;20610;-84
2021/06/29 07:23:18;;;;;;;3.43;3.23;;;18.90;99.90;;;;;;5070639;28;20620;-83
2021/06/29 07:25:45;;;;;;;4.00;3.70;;;18.80;99.90;;;;;;5070353;28;20604;-83
2021/06/29 07:28:12;;;;;;;4.17;3.17;;;19.00;99.90;;;;;;5070883;28;20613;-84
2021/06/29 07:30:40;;;;;;;3.70;3.40;;;19.10;99.90;;;;;;5070477;28;20624;-83
2021/06/29 07:33:08;;;;;;;3.10;2.90;;;19.10;99.90;;;;;;5070560;28;20617;-83
2021/06/29 07:35:36;;;;;;;3.10;2.90;;;19.00;99.90;;;;;;5070005;28;20715;-83
2021/06/29 07:38:05;;;;;;;2.67;2.57;;;18.90;99.90;;;;;;5070916;28;20621;-83
2021/06/29 07:40:33;;;;;;;3.20;3.00;;;18.90;99.90;;;;;;5070917;28;20655;-83
2021/06/29 07:43:00;;;;;;;8.00;3.67;;;19.00;99.90;;;;;;5070186;28;20686;-83
2021/06/29 07:45:29;;;;;;;4.17;3.77;;;19.10;99.90;;;;;;5070172;28;21055;-83
2021/06/29 07:48:01;;;;;;;3.23;2.87;;;19.20;99.90;;;;;;5070532;28;20973;-84
2021/06/29 07:50:29;;;;;;;3.00;2.60;;;19.30;99.90;;;;;;5070861;28;20601;-84
2021/06/29 07:52:59;;;;;;;3.70;3.37;;;19.30;99.90;;;;;;5070457;28;20620;-84
2021/06/29 07:55:26;;;;;;;3.63;2.47;;;19.40;99.90;;;;;;5069668;28;20733;-83
2021/06/29 07:57:53;;;;;;;2.80;2.60;;;19.50;99.90;;;;;;5070321;28;21087;-83
2021/06/29 08:00:21;;;;;;;3.03;2.83;;;19.60;99.90;;;;;;5065065;28;20618;-84
2021/06/29 08:02:48;;;;;;;3.30;3.10;;;19.70;99.90;;;;;;5062413;28;20633;-84
2021/06/29 08:05:15;;;;;;;2.97;2.77;;;19.90;99.90;;;;;;5061966;28;21217;-84
2021/06/29 08:07:42;;;;;;;3.37;3.17;;;20.00;99.90;;;;;;5054835;28;20622;-83
2021/06/29 08:10:11;;;;;;;2.83;2.70;;;20.20;99.90;;;;;;5066576;28;20757;-84
2021/06/29 08:12:39;;;;;;;2.40;2.30;;;20.30;99.90;;;;;;5056978;28;21082;-84
2021/06/29 08:15:07;;;;;;;2.97;2.77;;;20.40;99.90;;;;;;5059440;28;20650;-83
2021/06/29 08:17:34;;;;;;;3.23;3.03;;;20.50;99.90;;;;;;5051201;28;20622;-85
2021/06/29 08:20:01;;;;;;;2.67;2.57;;;20.70;99.90;;;;;;5057412;28;20602;-84
2021/06/29 08:22:28;;;;;;;3.00;2.80;;;20.80;99.90;;;;;;5061242;28;20614;-84
2021/06/29 08:24:55;;;;;;;2.73;2.53;;;20.90;99.90;;;;;;5053922;28;20795;-85
2021/06/29 08:27:23;;;;;;;2.77;2.67;;;20.90;99.90;;;;;;5050212;28;20614;-84
2021/06/29 08:29:53;;;;;;;3.00;2.80;;;21.00;99.90;;;;;;5049989;28;21194;-84
2021/06/29 08:32:20;;;;;;;3.00;2.80;;;21.00;99.90;;;;;;5050144;28;20603;-85
2021/06/29 08:34:47;;;;;;;3.50;3.30;;;21.00;99.90;;;;;;5049167;28;20610;-85
2021/06/29 08:37:14;;;;;;;3.00;2.80;;;21.20;99.90;;;;;;5048500;28;20690;-85
2021/06/29 08:39:41;;;;;;;3.60;3.30;;;21.20;99.90;;;;;;5048410;28;20624;-85
2021/06/29 08:42:08;;;;;;;2.77;2.57;;;21.10;99.90;;;;;;5049692;28;20617;-86
2021/06/29 08:44:37;;;;;;;3.20;3.00;;;21.30;99.90;;;;;;5049897;28;21305;-85
2021/06/29 08:47:08;;;;;;;3.10;2.90;;;21.40;99.90;;;;;;5049865;28;20619;-85
2021/06/29 08:49:35;;;;;;;3.00;2.80;;;21.30;99.90;;;;;;5050306;28;20631;-84
2021/06/29 08:52:04;;;;;;;2.57;2.47;;;21.20;99.90;;;;;;5049769;28;20610;-85
2021/06/29 08:54:32;;;;;;;2.80;2.60;;;21.00;99.90;;;;;;5049203;28;20607;-85
2021/06/29 08:56:59;;;;;;;3.07;2.87;;;20.90;99.90;;;;;;5058400;28;21397;-85
2021/06/29 08:59:27;;;;;;;2.87;2.67;;;20.80;99.90;;;;;;5069964;28;20620;-85
2021/06/29 09:01:55;;;;;;;3.40;3.20;;;21.00;99.90;;;;;;5069784;28;20623;-86
2021/06/29 09:04:45;;;;;;;2.63;2.43;;;21.20;99.90;;;;;;5069489;28;20604;-85
2021/06/29 09:07:19;;;;;;;2.20;1.87;;;21.40;99.90;;;;;;5069939;28;21336;-85
2021/06/29 09:09:55;;;;;;;2.33;2.20;;;21.50;99.90;;;;;;5069608;28;20615;-86
2021/06/29 09:12:46;;;;;;;2.10;2.00;;;21.40;99.90;;;;;;5067575;28;20976;-86
2021/06/29 09:15:35;;;;;;;2.20;2.10;;;21.60;98.70;;;;;;5069318;28;21264;-86
2021/06/29 09:18:15;;;;;;;2.37;2.27;;;22.00;99.70;;;;;;5053569;28;20690;-86
2021/06/29 09:20:44;;;;;;;2.20;2.10;;;22.20;98.80;;;;;;5053241;28;20980;-86
2021/06/29 09:23:15;;;;;;;3.03;2.57;;;22.10;97.40;;;;;;5052634;28;21302;-86
2021/06/29 09:25:43;;;;;;;2.23;2.13;;;22.00;99.40;;;;;;5053123;28;20623;-86
2021/06/29 09:28:15;;;;;;;2.27;2.17;;;21.90;98.20;;;;;;5053472;28;20624;-86
2021/06/29 09:30:46;;;;;;;2.40;2.30;;;22.10;99.30;;;;;;5053466;28;20622;-85
2021/06/29 09:33:16;;;;;;;2.50;2.40;;;21.90;98.00;;;;;;5053369;28;20618;-85
2021/06/29 09:35:46;;;;;;;2.33;2.10;;;22.30;98.10;;;;;;5052512;28;20646;-86
2021/06/29 09:38:21;;;;;;;2.17;2.07;;;22.70;97.00;;;;;;5053391;28;20710;-86
2021/06/29 09:40:55;;;;;;;1.83;1.73;;;22.90;96.80;;;;;;5053455;28;20643;-85
2021/06/29 09:43:24;;;;;;;2.70;2.20;;;23.00;94.10;;;;;;5053351;28;20950;-85
2021/06/29 09:45:54;;;;;;;2.43;2.33;;;23.10;95.00;;;;;;5052671;28;20631;-84
2021/06/29 09:48:31;;;;;;;2.83;2.17;;;23.00;95.70;;;;;;5053043;28;20632;-84
2021/06/29 09:51:02;;;;;;;2.90;2.70;;;23.10;96.10;;;;;;5053110;28;20612;-85
2021/06/29 09:53:32;;;;;;;2.93;2.70;;;23.20;95.10;;;;;;5052999;28;20616;-85
2021/06/29 09:56:01;;;;;;;2.27;2.17;;;23.20;95.00;;;;;;5052546;28;20725;-85
2021/06/29 09:58:31;;;;;;;2.80;2.33;;;23.40;96.50;;;;;;5052620;28;20656;-85
2021/06/29 10:01:00;;;;;;;2.90;2.23;;;23.50;94.50;;;;;;5052873;28;20682;-85
2021/06/29 10:03:32;;;;;;;2.37;2.27;;;23.50;93.70;;;;;;5052844;28;20618;-86
2021/06/29 10:06:02;;;;;;;3.77;2.30;;;23.60;94.40;;;;;;5052527;28;20716;-85
2021/06/29 10:08:33;;;;;;;2.73;2.63;;;23.70;95.60;;;;;;5052663;28;20715;-85
2021/06/29 10:11:17;;;;;;;2.10;2.00;;;23.80;93.70;;;;;;5051922;28;20606;-85
2021/06/29 10:13:48;;;;;;;2.57;2.37;;;23.90;94.30;;;;;;5052433;28;20614;-85
2021/06/29 10:16:17;;;;;;;2.67;2.47;;;24.00;93.20;;;;;;5056865;28;20660;-84
2021/06/29 10:18:50;;;;;;;2.50;2.30;;;23.90;92.10;;;;;;5072563;28;20632;-85
2021/06/29 10:21:20;;;;;;;2.10;2.00;;;24.10;92.20;;;;;;5072265;28;20629;-85
2021/06/29 10:23:48;;;;;;;2.07;1.97;;;24.30;90.50;;;;;;5072760;28;20598;-85
2021/06/29 10:26:15;;;;;;;2.20;2.10;;;24.50;91.90;;;;;;5072056;28;20609;-85
2021/06/29 10:28:46;;;;;;;4.13;2.20;;;24.60;91.00;;;;;;5071081;28;20613;-85
2021/06/29 10:31:24;;;;;;;2.23;2.03;;;24.60;91.60;;;;;;5072095;28;20725;-85
2021/06/29 10:33:54;;;;;;;2.27;2.17;;;24.60;91.00;;;;;;5071828;28;20642;-85
2021/06/29 10:36:23;;;;;;;2.17;2.07;;;24.80;89.20;;;;;;5071688;28;20669;-84
2021/06/29 10:38:52;;;;;;;2.70;2.40;;;25.00;88.90;;;;;;5071987;28;21307;-85
2021/06/29 10:41:22;;;;;;;2.23;2.13;;;25.00;91.10;;;;;;5071920;28;20691;-84
2021/06/29 10:43:50;;;;;;;2.23;2.13;;;24.90;92.50;;;;;;5071839;28;20996;-85
2021/06/29 10:46:39;;;;;;;2.07;1.97;;;24.90;90.20;;;;;;5071529;28;20695;-85
2021/06/29 10:49:28;;;;;;;2.10;2.00;;;24.90;91.30;;;;;;5072130;28;20662;-84
2021/06/29 10:51:56;;;;;;;4.10;2.23;;;25.20;86.10;;;;;;5071821;28;20606;-84
2021/06/29 10:54:55;;;;;;;2.50;2.40;;;25.00;86.60;;;;;;5071306;28;20629;-84
2021/06/29 10:57:25;;;;;;;2.20;2.10;;;25.20;90.10;;;;;;5071344;28;20676;-85
2021/06/29 10:59:55;;;;;;;2.37;2.23;;;25.20;90.50;;;;;;5071336;28;20609;-83
2021/06/29 11:02:33;;;;;;;2.10;2.00;;;25.50;89.90;;;;;;5071587;28;20621;-84
2021/06/29 11:05:04;;;;;;;2.30;2.10;;;25.80;87.00;;;;;;5071145;28;20610;-85
2021/06/29 11:07:43;;;;;;;2.00;1.90;;;25.90;85.30;;;;;;5071325;28;20614;-84
2021/06/29 11:10:14;;;;;;;2.10;2.00;;;25.80;87.50;;;;;;5071321;28;20659;-84
2021/06/29 11:12:48;;;;;;;1.70;1.60;;;25.50;85.60;;;;;;5071403;28;21220;-84
2021/06/29 11:15:16;;;;;;;2.03;1.93;;;25.30;84.70;;;;;;5071098;28;20719;-83
2021/06/29 11:17:53;;;;;;;3.20;1.80;;;25.10;83.70;;;;;;5070703;28;21306;-84
2021/06/29 11:20:23;;;;;;;3.40;2.50;;;25.00;84.60;;;;;;5071328;28;20957;-83
2021/06/29 11:22:54;;;;;;;3.13;2.83;;;25.10;86.50;;;;;;5071221;28;20646;-84
2021/06/29 11:25:38;;;;;;;2.83;2.40;;;25.20;87.10;;;;;;5070913;28;20617;-84
2021/06/29 11:28:09;;;;;;;2.60;2.40;;;25.10;88.10;;;;;;5070525;28;20609;-85
2021/06/29 11:30:56;;;;;;;2.63;2.43;;;25.30;88.60;;;;;;5071363;28;21013;-84
2021/06/29 11:33:41;;;;;;;2.17;1.97;;;25.30;89.50;;;;;;5070900;28;20621;-84
2021/06/29 11:36:50;;;;;;;4.10;2.00;;;25.60;86.80;;;;;;5070436;28;20726;-84
2021/06/29 11:39:49;;;;;;;2.87;2.67;;;25.80;87.40;;;;;;5070606;28;20635;-84
2021/06/29 11:42:24;;;;;;;2.70;2.50;;;26.20;86.70;;;;;;5070447;28;20633;-83
2021/06/29 11:45:02;;;;;;;3.53;2.50;;;26.50;82.70;;;;;;5069954;28;20959;-84
2021/06/29 11:47:40;;;;;;;2.93;2.50;;;26.40;83.40;;;;;;5070588;28;21225;-84
2021/06/29 11:50:19;;;;;;;2.83;2.63;;;26.20;85.80;;;;;;5070830;28;20635;-84
2021/06/29 11:52:47;;;;;;;2.83;2.63;;;26.50;84.00;;;;;;5070553;28;21249;-84
2021/06/29 11:55:19;;;;;;;2.37;2.27;;;26.60;81.10;;;;;;5069842;28;20722;-84
2021/06/29 11:57:48;;;;;;;2.53;2.33;;;26.70;83.80;;;;;;5070638;28;20653;-84
2021/06/29 12:00:31;;;;;;;2.53;2.33;;;26.90;85.00;;;;;;5070696;28;20668;-84
2021/06/29 12:03:00;;;;;;;2.37;2.27;;;27.20;82.60;;;;;;5070668;28;20647;-84
2021/06/29 12:05:29;;;;;;;3.23;2.43;;;27.10;84.90;;;;;;5070316;28;21165;-83
2021/06/29 12:07:58;;;;;;;2.93;2.73;;;27.40;82.10;;;;;;5070514;28;21020;-83
2021/06/29 12:10:27;;;;;;;2.63;2.53;;;27.60;79.10;;;;;;5070467;28;20609;-83
2021/06/29 12:12:56;;;;;;;2.40;2.20;;;27.80;81.00;;;;;;5070234;28;20994;-82
2021/06/29 12:15:26;;;;;;;3.20;3.00;;;27.90;78.30;;;;;;5070192;28;21023;-83
2021/06/29 12:18:00;;;;;;;3.10;2.90;;;28.20;78.90;;;;;;5052026;28;20662;-83
2021/06/29 12:20:29;;;;;;;2.93;2.73;;;27.60;76.70;;;;;;5050286;28;20668;-83
2021/06/29 12:22:58;;;;;;;2.33;2.23;;;27.20;79.90;;;;;;5050445;28;20610;-83
2021/06/29 12:25:31;;;;;;;3.97;2.77;;;26.60;81.10;;;;;;5049850;28;20606;-84
2021/06/29 12:28:01;;;;;;;6.70;2.60;;;26.50;82.30;;;;;;5050328;28;20626;-84
2021/06/29 12:30:41;;;;;;;5.30;3.37;;;26.40;81.40;;;;;;5049979;28;20630;-83
2021/06/29 12:33:15;;;;;;;3.30;2.87;;;25.80;78.10;;;;;;5050399;28;20683;-83
2021/06/29 12:35:43;;;;;;;2.90;2.70;;;25.30;79.30;;;;;;5049830;28;20668;-83
2021/06/29 12:38:14;;;;;;;2.70;2.60;;;25.10;83.00;;;;;;5050259;28;20739;-83
2021/06/29 12:40:43;;;;;;;3.10;2.80;;;24.90;86.30;;;;;;5050112;28;20675;-84
2021/06/29 12:43:32;;;;;;;3.30;3.10;;;24.70;88.90;;;;;;5049436;28;20684;-83
2021/06/29 12:46:14;;;;;;;3.47;3.00;;;24.60;88.60;;;;;;5049937;28;21015;-83
2021/06/29 12:48:41;;;;;;;2.60;2.50;;;24.60;86.70;;;;;;5049994;28;20679;-83
2021/06/29 12:51:10;;;;;;;3.00;2.60;;;24.40;87.10;;;;;;5050037;28;20625;-83
2021/06/29 12:53:38;;;;;;;3.00;2.80;;;24.30;86.90;;;;;;5053387;28;20618;-83
2021/06/29 12:56:17;;;;;;;2.70;2.50;;;24.00;89.10;;;;;;5053721;28;20692;-82
2021/06/29 12:58:48;;;;;;;2.53;1.23;;;23.40;88.60;;;;;;5054061;28;20718;-81
2021/06/29 13:01:18;;;;;;;7.90;2.60;;;22.00;90.20;;;;;;5053865;28;20628;-82